sensor_id;sensor_type;location;lat;lon;timestamp;P1;durP1;ratioP1;P2;durP2;ratioP2
813;SDS011;389;48.710;9.392;2023-08-31T00:02:09;2.10;;;1.80;;
813;SDS011;389;48.710;9.392;2023-08-31T00:04:34;2.93;;;2.63;;
813;SDS011;389;48.710;9.392;2023-08-31T00:07:00;3.60;;;2.80;;
813;SDS011;389;48.710;9.392;2023-08-31T00:09:25;3.20;;;2.27;;
813;SDS011;389;48.710;9.392;2023-08-31T00:11:51;2.53;;;2.33;;
813;SDS011;389;48.710;9.392;2023-08-31T00:14:17;2.30;;;2.10;;
813;SDS011;389;48.710;9.392;2023-08-31T00:16:43;3.07;;;2.77;;
813;SDS011;389;48.710;9.392;2023-08-31T00:19:10;2.83;;;2.30;;
813;SDS011;389;48.710;9.392;2023-08-31T00:21:36;2.63;;;2.37;;
813;SDS011;389;48.710;9.392;2023-08-31T00:24:02;4.90;;;3.00;;
813;SDS011;389;48.710;9.392;2023-08-31T00:26:28;4.23;;;2.73;;
813;SDS011;389;48.710;9.392;2023-08-31T00:28:55;3.00;;;2.80;;
813;SDS011;389;48.710;9.392;2023-08-31T00:31:21;3.60;;;2.80;;
813;SDS011;389;48.710;9.392;2023-08-31T00:33:47;3.63;;;2.80;;
813;SDS011;389;48.710;9.392;2023-08-31T00:36:13;4.50;;;3.40;;
813;SDS011;389;48.710;9.392;2023-08-31T00:38:39;5.47;;;2.80;;
813;SDS011;389;48.710;9.392;2023-08-31T00:41:04;3.50;;;2.90;;
813;SDS011;389;48.710;9.392;2023-08-31T00:43:30;3.97;;;2.80;;
813;SDS011;389;48.710;9.392;2023-08-31T00:45:56;4.10;;;2.90;;
813;SDS011;389;48.710;9.392;2023-08-31T00:48:23;3.23;;;2.53;;
813;SDS011;389;48.710;9.392;2023-08-31T00:50:49;3.53;;;2.80;;
813;SDS011;389;48.710;9.392;2023-08-31T00:53:15;2.87;;;2.57;;
813;SDS011;389;48.710;9.392;2023-08-31T00:55:42;3.87;;;2.97;;
813;SDS011;389;48.710;9.392;2023-08-31T00:58:09;3.23;;;3.03;;
813;SDS011;389;48.710;9.392;2023-08-31T01:00:51;3.17;;;2.87;;
813;SDS011;389;48.710;9.392;2023-08-31T01:06:12;3.30;;;2.63;;
813;SDS011;389;48.710;9.392;2023-08-31T01:08:45;6.00;;;3.17;;
813;SDS011;389;48.710;9.392;2023-08-31T01:11:51;3.57;;;2.60;;
813;SDS011;389;48.710;9.392;2023-08-31T01:14:32;4.97;;;3.00;;
813;SDS011;389;48.710;9.392;2023-08-31T01:17:18;4.00;;;3.20;;
813;SDS011;389;48.710;9.392;2023-08-31T01:19:50;3.43;;;2.77;;
813;SDS011;389;48.710;9.392;2023-08-31T01:22:30;4.43;;;3.10;;
813;SDS011;389;48.710;9.392;2023-08-31T01:25:05;3.30;;;2.37;;
813;SDS011;389;48.710;9.392;2023-08-31T01:27:34;3.50;;;2.70;;
813;SDS011;389;48.710;9.392;2023-08-31T01:30:00;5.37;;;2.73;;
813;SDS011;389;48.710;9.392;2023-08-31T01:32:26;4.17;;;2.40;;
813;SDS011;389;48.710;9.392;2023-08-31T01:34:51;2.90;;;2.67;;
813;SDS011;389;48.710;9.392;2023-08-31T01:37:20;4.80;;;3.00;;
813;SDS011;389;48.710;9.392;2023-08-31T01:39:52;3.83;;;3.27;;
813;SDS011;389;48.710;9.392;2023-08-31T01:42:22;3.30;;;2.50;;
813;SDS011;389;48.710;9.392;2023-08-31T01:44:51;5.67;;;2.80;;
813;SDS011;389;48.710;9.392;2023-08-31T01:47:17;3.87;;;3.10;;
813;SDS011;389;48.710;9.392;2023-08-31T01:49:44;3.40;;;3.10;;
813;SDS011;389;48.710;9.392;2023-08-31T01:52:09;4.97;;;3.23;;
813;SDS011;389;48.710;9.392;2023-08-31T01:54:35;6.93;;;3.07;;
813;SDS011;389;48.710;9.392;2023-08-31T01:57:02;4.57;;;3.17;;
813;SDS011;389;48.710;9.392;2023-08-31T01:59:28;6.43;;;3.60;;
813;SDS011;389;48.710;9.392;2023-08-31T02:01:54;4.07;;;3.10;;
813;SDS011;389;48.710;9.392;2023-08-31T02:04:19;3.70;;;3.03;;
813;SDS011;389;48.710;9.392;2023-08-31T02:06:45;3.40;;;3.10;;
813;SDS011;389;48.710;9.392;2023-08-31T02:09:12;3.97;;;3.10;;
813;SDS011;389;48.710;9.392;2023-08-31T02:11:38;4.00;;;3.17;;
813;SDS011;389;48.710;9.392;2023-08-31T02:14:04;3.53;;;3.23;;
813;SDS011;389;48.710;9.392;2023-08-31T02:16:30;5.07;;;3.53;;
813;SDS011;389;48.710;9.392;2023-08-31T02:18:56;3.97;;;3.20;;
813;SDS011;389;48.710;9.392;2023-08-31T02:21:22;5.87;;;3.43;;
813;SDS011;389;48.710;9.392;2023-08-31T02:23:48;3.87;;;2.97;;
813;SDS011;389;48.710;9.392;2023-08-31T02:26:13;5.63;;;3.20;;
813;SDS011;389;48.710;9.392;2023-08-31T02:28:39;4.50;;;3.60;;
813;SDS011;389;48.710;9.392;2023-08-31T02:31:04;4.00;;;3.30;;
813;SDS011;389;48.710;9.392;2023-08-31T02:33:30;4.67;;;3.67;;
813;SDS011;389;48.710;9.392;2023-08-31T02:35:55;4.80;;;3.60;;
813;SDS011;389;48.710;9.392;2023-08-31T02:38:21;7.70;;;3.87;;
813;SDS011;389;48.710;9.392;2023-08-31T02:40:47;3.97;;;3.10;;
813;SDS011;389;48.710;9.392;2023-08-31T02:43:14;5.50;;;3.37;;
813;SDS011;389;48.710;9.392;2023-08-31T02:45:40;7.83;;;3.70;;
813;SDS011;389;48.710;9.392;2023-08-31T02:48:08;3.30;;;3.00;;
813;SDS011;389;48.710;9.392;2023-08-31T02:50:35;4.00;;;3.43;;
813;SDS011;389;48.710;9.392;2023-08-31T02:53:00;4.47;;;2.80;;
813;SDS011;389;48.710;9.392;2023-08-31T02:55:26;3.27;;;2.60;;
813;SDS011;389;48.710;9.392;2023-08-31T02:57:51;4.47;;;3.40;;
813;SDS011;389;48.710;9.392;2023-08-31T03:00:17;5.20;;;3.83;;
813;SDS011;389;48.710;9.392;2023-08-31T03:02:46;8.10;;;3.30;;
813;SDS011;389;48.710;9.392;2023-08-31T03:05:12;4.57;;;3.47;;
813;SDS011;389;48.710;9.392;2023-08-31T03:07:38;4.47;;;3.00;;
813;SDS011;389;48.710;9.392;2023-08-31T03:10:04;4.10;;;3.17;;
813;SDS011;389;48.710;9.392;2023-08-31T03:12:30;4.23;;;3.10;;
813;SDS011;389;48.710;9.392;2023-08-31T03:14:55;4.87;;;3.50;;
813;SDS011;389;48.710;9.392;2023-08-31T03:17:21;4.00;;;3.53;;
813;SDS011;389;48.710;9.392;2023-08-31T03:19:46;4.97;;;3.30;;
813;SDS011;389;48.710;9.392;2023-08-31T03:22:12;5.40;;;3.60;;
813;SDS011;389;48.710;9.392;2023-08-31T03:24:38;4.33;;;2.97;;
813;SDS011;389;48.710;9.392;2023-08-31T03:27:03;4.57;;;3.50;;
813;SDS011;389;48.710;9.392;2023-08-31T03:29:29;3.73;;;3.13;;
813;SDS011;389;48.710;9.392;2023-08-31T03:31:56;7.00;;;3.50;;
813;SDS011;389;48.710;9.392;2023-08-31T03:34:22;3.47;;;3.17;;
813;SDS011;389;48.710;9.392;2023-08-31T03:36:48;3.87;;;3.10;;
813;SDS011;389;48.710;9.392;2023-08-31T03:39:15;3.67;;;3.20;;
813;SDS011;389;48.710;9.392;2023-08-31T03:41:40;4.53;;;3.70;;
813;SDS011;389;48.710;9.392;2023-08-31T03:44:06;5.00;;;3.77;;
813;SDS011;389;48.710;9.392;2023-08-31T03:46:31;6.80;;;3.60;;
813;SDS011;389;48.710;9.392;2023-08-31T03:48:57;3.83;;;3.20;;
813;SDS011;389;48.710;9.392;2023-08-31T03:51:23;4.97;;;3.43;;
813;SDS011;389;48.710;9.392;2023-08-31T03:53:48;4.27;;;3.63;;
813;SDS011;389;48.710;9.392;2023-08-31T03:56:13;6.13;;;3.53;;
813;SDS011;389;48.710;9.392;2023-08-31T03:58:39;6.70;;;3.80;;
813;SDS011;389;48.710;9.392;2023-08-31T04:01:05;5.77;;;4.00;;
813;SDS011;389;48.710;9.392;2023-08-31T04:03:30;4.77;;;3.63;;
813;SDS011;389;48.710;9.392;2023-08-31T04:05:56;4.07;;;3.70;;
813;SDS011;389;48.710;9.392;2023-08-31T04:08:21;5.00;;;3.87;;
813;SDS011;389;48.710;9.392;2023-08-31T04:10:47;4.50;;;3.93;;
813;SDS011;389;48.710;9.392;2023-08-31T04:13:12;5.60;;;3.63;;
813;SDS011;389;48.710;9.392;2023-08-31T04:15:38;4.10;;;3.70;;
813;SDS011;389;48.710;9.392;2023-08-31T04:18:04;8.07;;;3.73;;
813;SDS011;389;48.710;9.392;2023-08-31T04:20:30;5.90;;;4.20;;
813;SDS011;389;48.710;9.392;2023-08-31T04:22:55;5.03;;;3.90;;
813;SDS011;389;48.710;9.392;2023-08-31T04:25:21;5.53;;;4.20;;
813;SDS011;389;48.710;9.392;2023-08-31T04:27:46;4.87;;;3.87;;
813;SDS011;389;48.710;9.392;2023-08-31T04:30:13;5.60;;;3.77;;
813;SDS011;389;48.710;9.392;2023-08-31T04:32:38;5.93;;;3.53;;
813;SDS011;389;48.710;9.392;2023-08-31T04:35:04;4.20;;;3.80;;
813;SDS011;389;48.710;9.392;2023-08-31T04:37:31;10.50;;;4.00;;
813;SDS011;389;48.710;9.392;2023-08-31T04:39:57;5.10;;;4.03;;
813;SDS011;389;48.710;9.392;2023-08-31T04:42:23;5.43;;;3.80;;
813;SDS011;389;48.710;9.392;2023-08-31T04:44:49;6.23;;;3.80;;
813;SDS011;389;48.710;9.392;2023-08-31T04:47:15;4.70;;;3.73;;
813;SDS011;389;48.710;9.392;2023-08-31T04:49:40;6.10;;;3.87;;
813;SDS011;389;48.710;9.392;2023-08-31T04:52:06;5.27;;;3.87;;
813;SDS011;389;48.710;9.392;2023-08-31T04:54:31;4.40;;;4.00;;
813;SDS011;389;48.710;9.392;2023-08-31T04:56:57;4.33;;;3.60;;
813;SDS011;389;48.710;9.392;2023-08-31T04:59:23;5.17;;;3.70;;
813;SDS011;389;48.710;9.392;2023-08-31T05:01:48;5.87;;;3.53;;
813;SDS011;389;48.710;9.392;2023-08-31T05:04:14;5.77;;;3.80;;
813;SDS011;389;48.710;9.392;2023-08-31T05:06:39;4.47;;;3.80;;
813;SDS011;389;48.710;9.392;2023-08-31T05:09:05;5.53;;;4.00;;
813;SDS011;389;48.710;9.392;2023-08-31T05:11:31;5.37;;;4.60;;
813;SDS011;389;48.710;9.392;2023-08-31T05:13:56;5.17;;;4.33;;
813;SDS011;389;48.710;9.392;2023-08-31T05:16:22;7.27;;;4.40;;
813;SDS011;389;48.710;9.392;2023-08-31T05:18:48;5.30;;;4.00;;
813;SDS011;389;48.710;9.392;2023-08-31T05:21:14;5.30;;;4.80;;
813;SDS011;389;48.710;9.392;2023-08-31T05:23:40;7.17;;;4.30;;
813;SDS011;389;48.710;9.392;2023-08-31T05:26:06;6.63;;;4.30;;
813;SDS011;389;48.710;9.392;2023-08-31T05:28:31;6.03;;;3.70;;
813;SDS011;389;48.710;9.392;2023-08-31T05:30:57;4.30;;;3.87;;
813;SDS011;389;48.710;9.392;2023-08-31T05:33:24;4.80;;;3.60;;
813;SDS011;389;48.710;9.392;2023-08-31T05:35:53;4.90;;;3.63;;
813;SDS011;389;48.710;9.392;2023-08-31T05:38:20;4.90;;;3.70;;
813;SDS011;389;48.710;9.392;2023-08-31T05:40:45;4.73;;;4.23;;
813;SDS011;389;48.710;9.392;2023-08-31T05:43:14;8.17;;;4.30;;
813;SDS011;389;48.710;9.392;2023-08-31T05:45:41;7.13;;;3.93;;
813;SDS011;389;48.710;9.392;2023-08-31T05:48:07;7.17;;;4.20;;
813;SDS011;389;48.710;9.392;2023-08-31T05:50:33;5.27;;;4.10;;
813;SDS011;389;48.710;9.392;2023-08-31T05:53:01;6.20;;;3.83;;
813;SDS011;389;48.710;9.392;2023-08-31T05:55:27;5.83;;;4.20;;
813;SDS011;389;48.710;9.392;2023-08-31T05:57:52;7.50;;;4.57;;
813;SDS011;389;48.710;9.392;2023-08-31T06:00:18;4.63;;;4.13;;
813;SDS011;389;48.710;9.392;2023-08-31T06:02:44;7.10;;;3.90;;
813;SDS011;389;48.710;9.392;2023-08-31T06:05:10;6.67;;;3.67;;
813;SDS011;389;48.710;9.392;2023-08-31T06:07:37;7.90;;;3.53;;
813;SDS011;389;48.710;9.392;2023-08-31T06:10:04;3.73;;;3.33;;
813;SDS011;389;48.710;9.392;2023-08-31T06:12:30;4.70;;;3.67;;
813;SDS011;389;48.710;9.392;2023-08-31T06:14:56;4.67;;;3.53;;
813;SDS011;389;48.710;9.392;2023-08-31T06:17:22;4.13;;;3.60;;
813;SDS011;389;48.710;9.392;2023-08-31T06:19:47;5.80;;;3.73;;
813;SDS011;389;48.710;9.392;2023-08-31T06:22:13;4.73;;;3.30;;
813;SDS011;389;48.710;9.392;2023-08-31T06:24:38;3.67;;;3.37;;
813;SDS011;389;48.710;9.392;2023-08-31T06:27:04;3.47;;;3.17;;
813;SDS011;389;48.710;9.392;2023-08-31T06:29:30;5.40;;;3.43;;
813;SDS011;389;48.710;9.392;2023-08-31T06:31:55;8.03;;;3.80;;
813;SDS011;389;48.710;9.392;2023-08-31T06:34:21;5.57;;;3.60;;
813;SDS011;389;48.710;9.392;2023-08-31T06:36:46;6.30;;;3.10;;
813;SDS011;389;48.710;9.392;2023-08-31T06:39:12;4.53;;;3.30;;
813;SDS011;389;48.710;9.392;2023-08-31T06:41:37;4.00;;;3.50;;
813;SDS011;389;48.710;9.392;2023-08-31T06:44:03;5.60;;;3.47;;
813;SDS011;389;48.710;9.392;2023-08-31T06:46:30;3.30;;;3.03;;
813;SDS011;389;48.710;9.392;2023-08-31T06:48:59;5.67;;;3.73;;
813;SDS011;389;48.710;9.392;2023-08-31T06:51:25;5.33;;;3.50;;
813;SDS011;389;48.710;9.392;2023-08-31T06:53:50;5.80;;;4.10;;
813;SDS011;389;48.710;9.392;2023-08-31T06:56:16;4.73;;;3.87;;
813;SDS011;389;48.710;9.392;2023-08-31T06:58:42;4.50;;;3.10;;
813;SDS011;389;48.710;9.392;2023-08-31T07:01:08;4.70;;;3.10;;
813;SDS011;389;48.710;9.392;2023-08-31T07:03:34;7.53;;;4.10;;
813;SDS011;389;48.710;9.392;2023-08-31T07:06:00;3.47;;;3.17;;
813;SDS011;389;48.710;9.392;2023-08-31T07:08:25;5.23;;;3.80;;
813;SDS011;389;48.710;9.392;2023-08-31T07:10:51;5.63;;;3.70;;
813;SDS011;389;48.710;9.392;2023-08-31T07:13:17;6.27;;;4.37;;
813;SDS011;389;48.710;9.392;2023-08-31T07:15:42;6.83;;;4.20;;
813;SDS011;389;48.710;9.392;2023-08-31T07:18:08;8.40;;;4.17;;
813;SDS011;389;48.710;9.392;2023-08-31T07:20:34;5.90;;;4.00;;
813;SDS011;389;48.710;9.392;2023-08-31T07:22:59;5.27;;;3.90;;
813;SDS011;389;48.710;9.392;2023-08-31T07:25:25;3.57;;;3.27;;
813;SDS011;389;48.710;9.392;2023-08-31T07:27:50;5.47;;;3.77;;
813;SDS011;389;48.710;9.392;2023-08-31T07:30:17;3.53;;;3.17;;
813;SDS011;389;48.710;9.392;2023-08-31T07:32:42;4.47;;;3.23;;
813;SDS011;389;48.710;9.392;2023-08-31T07:35:08;4.53;;;3.30;;
813;SDS011;389;48.710;9.392;2023-08-31T07:37:34;3.20;;;2.90;;
813;SDS011;389;48.710;9.392;2023-08-31T07:40:00;4.80;;;3.23;;
813;SDS011;389;48.710;9.392;2023-08-31T07:42:26;6.13;;;3.07;;
813;SDS011;389;48.710;9.392;2023-08-31T07:44:51;4.43;;;2.60;;
813;SDS011;389;48.710;9.392;2023-08-31T07:47:17;3.57;;;3.27;;
813;SDS011;389;48.710;9.392;2023-08-31T07:49:42;3.83;;;3.10;;
813;SDS011;389;48.710;9.392;2023-08-31T07:52:09;3.10;;;2.43;;
813;SDS011;389;48.710;9.392;2023-08-31T07:54:34;3.73;;;2.80;;
813;SDS011;389;48.710;9.392;2023-08-31T07:57:00;4.10;;;2.70;;
813;SDS011;389;48.710;9.392;2023-08-31T07:59:26;3.70;;;2.70;;
813;SDS011;389;48.710;9.392;2023-08-31T08:01:52;3.83;;;2.90;;
813;SDS011;389;48.710;9.392;2023-08-31T08:04:18;3.10;;;2.80;;
813;SDS011;389;48.710;9.392;2023-08-31T08:06:44;5.57;;;2.90;;
813;SDS011;389;48.710;9.392;2023-08-31T08:09:10;3.63;;;2.77;;
813;SDS011;389;48.710;9.392;2023-08-31T08:11:37;3.27;;;2.50;;
813;SDS011;389;48.710;9.392;2023-08-31T08:14:02;2.57;;;2.37;;
813;SDS011;389;48.710;9.392;2023-08-31T08:16:28;5.07;;;2.57;;
813;SDS011;389;48.710;9.392;2023-08-31T08:18:54;2.63;;;2.43;;
813;SDS011;389;48.710;9.392;2023-08-31T08:21:19;3.50;;;2.27;;
813;SDS011;389;48.710;9.392;2023-08-31T08:23:45;2.57;;;2.10;;
813;SDS011;389;48.710;9.392;2023-08-31T08:26:10;3.70;;;2.20;;
813;SDS011;389;48.710;9.392;2023-08-31T08:28:36;4.60;;;2.40;;
813;SDS011;389;48.710;9.392;2023-08-31T08:31:01;3.13;;;2.67;;
813;SDS011;389;48.710;9.392;2023-08-31T08:33:28;4.80;;;2.57;;
813;SDS011;389;48.710;9.392;2023-08-31T08:35:57;5.13;;;2.60;;
813;SDS011;389;48.710;9.392;2023-08-31T08:38:23;3.57;;;2.33;;
813;SDS011;389;48.710;9.392;2023-08-31T08:40:50;6.03;;;2.20;;
813;SDS011;389;48.710;9.392;2023-08-31T08:43:15;3.60;;;2.33;;
813;SDS011;389;48.710;9.392;2023-08-31T08:45:47;2.77;;;1.90;;
813;SDS011;389;48.710;9.392;2023-08-31T08:48:15;2.60;;;2.23;;
813;SDS011;389;48.710;9.392;2023-08-31T08:50:42;4.53;;;2.10;;
813;SDS011;389;48.710;9.392;2023-08-31T08:53:08;2.67;;;1.90;;
813;SDS011;389;48.710;9.392;2023-08-31T08:55:34;3.07;;;2.00;;
813;SDS011;389;48.710;9.392;2023-08-31T08:57:59;2.50;;;1.90;;
813;SDS011;389;48.710;9.392;2023-08-31T09:00:26;3.30;;;2.03;;
813;SDS011;389;48.710;9.392;2023-08-31T09:02:52;2.97;;;1.97;;
813;SDS011;389;48.710;9.392;2023-08-31T09:05:18;2.17;;;1.87;;
813;SDS011;389;48.710;9.392;2023-08-31T09:08:06;2.60;;;2.00;;
813;SDS011;389;48.710;9.392;2023-08-31T09:10:38;3.63;;;2.27;;
813;SDS011;389;48.710;9.392;2023-08-31T09:13:12;4.30;;;1.73;;
813;SDS011;389;48.710;9.392;2023-08-31T09:18:04;2.17;;;1.90;;
813;SDS011;389;48.710;9.392;2023-08-31T09:20:30;2.17;;;1.97;;
813;SDS011;389;48.710;9.392;2023-08-31T09:22:55;3.97;;;1.90;;
813;SDS011;389;48.710;9.392;2023-08-31T09:25:21;2.37;;;1.83;;
813;SDS011;389;48.710;9.392;2023-08-31T09:27:47;2.23;;;2.00;;
813;SDS011;389;48.710;9.392;2023-08-31T09:30:13;2.83;;;1.97;;
813;SDS011;389;48.710;9.392;2023-08-31T09:32:39;2.60;;;2.10;;
813;SDS011;389;48.710;9.392;2023-08-31T09:35:10;2.53;;;1.80;;
813;SDS011;389;48.710;9.392;2023-08-31T09:37:36;3.50;;;2.20;;
813;SDS011;389;48.710;9.392;2023-08-31T09:40:02;2.63;;;2.00;;
813;SDS011;389;48.710;9.392;2023-08-31T09:42:37;2.73;;;2.20;;
813;SDS011;389;48.710;9.392;2023-08-31T09:45:03;2.90;;;1.90;;
813;SDS011;389;48.710;9.392;2023-08-31T09:47:29;3.93;;;2.10;;
813;SDS011;389;48.710;9.392;2023-08-31T09:49:56;2.10;;;1.90;;
813;SDS011;389;48.710;9.392;2023-08-31T09:52:23;3.40;;;2.40;;
813;SDS011;389;48.710;9.392;2023-08-31T09:54:50;1.97;;;1.87;;
813;SDS011;389;48.710;9.392;2023-08-31T09:57:17;2.97;;;2.10;;
813;SDS011;389;48.710;9.392;2023-08-31T09:59:43;2.70;;;1.93;;
813;SDS011;389;48.710;9.392;2023-08-31T10:02:10;3.10;;;2.27;;
813;SDS011;389;48.710;9.392;2023-08-31T10:04:38;1.70;;;1.60;;
813;SDS011;389;48.710;9.392;2023-08-31T10:07:04;3.30;;;2.00;;
813;SDS011;389;48.710;9.392;2023-08-31T10:09:31;3.07;;;2.10;;
813;SDS011;389;48.710;9.392;2023-08-31T10:11:57;2.13;;;1.80;;
813;SDS011;389;48.710;9.392;2023-08-31T10:14:23;2.57;;;1.60;;
813;SDS011;389;48.710;9.392;2023-08-31T10:16:49;3.37;;;1.70;;
813;SDS011;389;48.710;9.392;2023-08-31T10:19:17;2.27;;;1.90;;
813;SDS011;389;48.710;9.392;2023-08-31T10:21:43;2.33;;;1.87;;
813;SDS011;389;48.710;9.392;2023-08-31T10:24:09;3.80;;;1.80;;
813;SDS011;389;48.710;9.392;2023-08-31T10:26:34;2.57;;;1.80;;
813;SDS011;389;48.710;9.392;2023-08-31T10:29:00;2.13;;;1.67;;
813;SDS011;389;48.710;9.392;2023-08-31T10:31:34;2.53;;;2.10;;
813;SDS011;389;48.710;9.392;2023-08-31T10:34:03;2.43;;;1.83;;
813;SDS011;389;48.710;9.392;2023-08-31T10:39:05;3.77;;;2.10;;
813;SDS011;389;48.710;9.392;2023-08-31T10:41:41;3.40;;;1.90;;
813;SDS011;389;48.710;9.392;2023-08-31T10:44:30;2.93;;;2.13;;
813;SDS011;389;48.710;9.392;2023-08-31T10:46:59;2.50;;;1.87;;
813;SDS011;389;48.710;9.392;2023-08-31T10:49:28;2.23;;;2.00;;
813;SDS011;389;48.710;9.392;2023-08-31T10:51:57;4.23;;;2.03;;
813;SDS011;389;48.710;9.392;2023-08-31T10:54:39;2.23;;;1.70;;
813;SDS011;389;48.710;9.392;2023-08-31T10:57:05;3.03;;;1.80;;
813;SDS011;389;48.710;9.392;2023-08-31T11:05:05;2.73;;;1.60;;
813;SDS011;389;48.710;9.392;2023-08-31T11:07:47;2.17;;;1.87;;
813;SDS011;389;48.710;9.392;2023-08-31T11:10:18;6.87;;;1.87;;
813;SDS011;389;48.710;9.392;2023-08-31T11:12:49;2.70;;;2.00;;
813;SDS011;389;48.710;9.392;2023-08-31T11:15:18;2.90;;;1.83;;
813;SDS011;389;48.710;9.392;2023-08-31T11:17:44;4.10;;;1.53;;
813;SDS011;389;48.710;9.392;2023-08-31T11:20:18;2.60;;;2.03;;
813;SDS011;389;48.710;9.392;2023-08-31T11:22:48;4.63;;;2.27;;
813;SDS011;389;48.710;9.392;2023-08-31T11:25:15;2.00;;;1.73;;
813;SDS011;389;48.710;9.392;2023-08-31T11:27:42;2.53;;;2.03;;
813;SDS011;389;48.710;9.392;2023-08-31T11:30:18;2.00;;;1.83;;
813;SDS011;389;48.710;9.392;2023-08-31T11:32:46;6.10;;;1.87;;
813;SDS011;389;48.710;9.392;2023-08-31T11:35:13;2.90;;;1.80;;
813;SDS011;389;48.710;9.392;2023-08-31T11:37:40;3.47;;;2.10;;
813;SDS011;389;48.710;9.392;2023-08-31T11:40:07;3.53;;;2.00;;
813;SDS011;389;48.710;9.392;2023-08-31T11:42:33;3.30;;;2.07;;
813;SDS011;389;48.710;9.392;2023-08-31T11:44:59;2.40;;;2.00;;
813;SDS011;389;48.710;9.392;2023-08-31T11:47:25;2.90;;;2.20;;
813;SDS011;389;48.710;9.392;2023-08-31T11:49:51;2.50;;;1.90;;
813;SDS011;389;48.710;9.392;2023-08-31T11:52:17;3.03;;;2.40;;
813;SDS011;389;48.710;9.392;2023-08-31T11:54:43;4.03;;;2.13;;
813;SDS011;389;48.710;9.392;2023-08-31T11:57:10;3.63;;;2.10;;
813;SDS011;389;48.710;9.392;2023-08-31T11:59:36;2.60;;;2.00;;
813;SDS011;389;48.710;9.392;2023-08-31T12:02:07;5.30;;;2.20;;
813;SDS011;389;48.710;9.392;2023-08-31T12:04:33;3.37;;;1.93;;
813;SDS011;389;48.710;9.392;2023-08-31T12:07:08;3.80;;;2.30;;
813;SDS011;389;48.710;9.392;2023-08-31T12:09:33;4.03;;;2.30;;
813;SDS011;389;48.710;9.392;2023-08-31T12:11:59;5.47;;;2.20;;
813;SDS011;389;48.710;9.392;2023-08-31T12:14:29;2.13;;;1.90;;
813;SDS011;389;48.710;9.392;2023-08-31T12:17:02;4.83;;;1.90;;
813;SDS011;389;48.710;9.392;2023-08-31T12:19:30;3.07;;;2.07;;
813;SDS011;389;48.710;9.392;2023-08-31T12:21:57;3.50;;;1.90;;
813;SDS011;389;48.710;9.392;2023-08-31T12:24:22;3.77;;;2.23;;
813;SDS011;389;48.710;9.392;2023-08-31T12:26:49;2.53;;;2.13;;
813;SDS011;389;48.710;9.392;2023-08-31T12:29:15;2.90;;;2.00;;
813;SDS011;389;48.710;9.392;2023-08-31T12:31:41;3.00;;;2.43;;
813;SDS011;389;48.710;9.392;2023-08-31T12:34:08;3.57;;;1.87;;
813;SDS011;389;48.710;9.392;2023-08-31T12:36:34;3.20;;;2.10;;
813;SDS011;389;48.710;9.392;2023-08-31T12:39:02;2.73;;;1.93;;
813;SDS011;389;48.710;9.392;2023-08-31T12:41:32;2.80;;;2.00;;
813;SDS011;389;48.710;9.392;2023-08-31T12:43:58;2.80;;;2.30;;
813;SDS011;389;48.710;9.392;2023-08-31T12:46:23;3.53;;;2.10;;
813;SDS011;389;48.710;9.392;2023-08-31T12:48:49;2.03;;;1.50;;
813;SDS011;389;48.710;9.392;2023-08-31T12:51:16;3.33;;;1.90;;
813;SDS011;389;48.710;9.392;2023-08-31T12:53:42;3.37;;;1.70;;
813;SDS011;389;48.710;9.392;2023-08-31T12:56:07;3.20;;;2.03;;
813;SDS011;389;48.710;9.392;2023-08-31T12:58:34;2.70;;;2.10;;
813;SDS011;389;48.710;9.392;2023-08-31T13:00:59;2.40;;;1.60;;
813;SDS011;389;48.710;9.392;2023-08-31T13:03:25;3.80;;;1.83;;
813;SDS011;389;48.710;9.392;2023-08-31T13:05:51;3.70;;;1.70;;
813;SDS011;389;48.710;9.392;2023-08-31T13:08:17;5.23;;;2.10;;
813;SDS011;389;48.710;9.392;2023-08-31T13:10:42;2.10;;;1.80;;
813;SDS011;389;48.710;9.392;2023-08-31T13:13:08;3.07;;;1.60;;
813;SDS011;389;48.710;9.392;2023-08-31T13:15:34;1.63;;;1.53;;
813;SDS011;389;48.710;9.392;2023-08-31T13:17:59;2.80;;;2.00;;
813;SDS011;389;48.710;9.392;2023-08-31T13:20:25;2.70;;;2.10;;
813;SDS011;389;48.710;9.392;2023-08-31T13:22:52;2.27;;;1.93;;
813;SDS011;389;48.710;9.392;2023-08-31T13:25:17;3.37;;;1.97;;
813;SDS011;389;48.710;9.392;2023-08-31T13:27:43;3.10;;;1.93;;
813;SDS011;389;48.710;9.392;2023-08-31T13:30:09;3.30;;;2.10;;
813;SDS011;389;48.710;9.392;2023-08-31T13:32:37;2.77;;;1.93;;
813;SDS011;389;48.710;9.392;2023-08-31T13:35:03;3.33;;;1.90;;
813;SDS011;389;48.710;9.392;2023-08-31T13:37:32;3.17;;;2.20;;
813;SDS011;389;48.710;9.392;2023-08-31T13:40:00;2.37;;;1.97;;
813;SDS011;389;48.710;9.392;2023-08-31T13:42:32;2.33;;;2.00;;
813;SDS011;389;48.710;9.392;2023-08-31T13:45:00;2.50;;;2.23;;
813;SDS011;389;48.710;9.392;2023-08-31T13:47:26;3.67;;;2.27;;
813;SDS011;389;48.710;9.392;2023-08-31T13:49:51;2.57;;;2.37;;
813;SDS011;389;48.710;9.392;2023-08-31T13:52:17;3.67;;;2.10;;
813;SDS011;389;48.710;9.392;2023-08-31T13:54:45;3.87;;;2.37;;
813;SDS011;389;48.710;9.392;2023-08-31T13:57:11;2.50;;;1.90;;
813;SDS011;389;48.710;9.392;2023-08-31T13:59:42;4.23;;;2.30;;
813;SDS011;389;48.710;9.392;2023-08-31T14:02:08;3.00;;;2.30;;
813;SDS011;389;48.710;9.392;2023-08-31T14:04:33;2.57;;;2.37;;
813;SDS011;389;48.710;9.392;2023-08-31T14:06:59;3.23;;;2.30;;
813;SDS011;389;48.710;9.392;2023-08-31T14:09:25;3.40;;;2.03;;
813;SDS011;389;48.710;9.392;2023-08-31T14:11:52;2.53;;;2.00;;
813;SDS011;389;48.710;9.392;2023-08-31T14:14:19;5.20;;;2.27;;
813;SDS011;389;48.710;9.392;2023-08-31T14:16:46;3.47;;;2.43;;
813;SDS011;389;48.710;9.392;2023-08-31T14:19:12;2.70;;;2.30;;
813;SDS011;389;48.710;9.392;2023-08-31T14:21:37;4.37;;;2.30;;
813;SDS011;389;48.710;9.392;2023-08-31T14:24:03;2.97;;;2.00;;
813;SDS011;389;48.710;9.392;2023-08-31T14:26:29;6.80;;;2.70;;
813;SDS011;389;48.710;9.392;2023-08-31T14:28:54;3.77;;;2.30;;
813;SDS011;389;48.710;9.392;2023-08-31T14:31:20;4.43;;;2.43;;
813;SDS011;389;48.710;9.392;2023-08-31T14:33:47;5.90;;;2.53;;
813;SDS011;389;48.710;9.392;2023-08-31T14:36:13;2.90;;;1.90;;
813;SDS011;389;48.710;9.392;2023-08-31T14:38:39;3.27;;;2.10;;
813;SDS011;389;48.710;9.392;2023-08-31T14:41:05;5.93;;;2.50;;
813;SDS011;389;48.710;9.392;2023-08-31T14:43:31;3.80;;;2.63;;
813;SDS011;389;48.710;9.392;2023-08-31T14:45:57;4.13;;;1.80;;
813;SDS011;389;48.710;9.392;2023-08-31T14:48:25;2.23;;;1.80;;
813;SDS011;389;48.710;9.392;2023-08-31T14:50:51;4.27;;;2.30;;
813;SDS011;389;48.710;9.392;2023-08-31T14:53:17;2.90;;;2.03;;
813;SDS011;389;48.710;9.392;2023-08-31T14:55:47;4.20;;;2.30;;
813;SDS011;389;48.710;9.392;2023-08-31T14:58:17;3.37;;;2.20;;
813;SDS011;389;48.710;9.392;2023-08-31T15:00:42;2.63;;;2.03;;
813;SDS011;389;48.710;9.392;2023-08-31T15:03:08;2.50;;;2.10;;
813;SDS011;389;48.710;9.392;2023-08-31T15:05:34;3.30;;;2.50;;
813;SDS011;389;48.710;9.392;2023-08-31T15:08:01;3.33;;;2.10;;
813;SDS011;389;48.710;9.392;2023-08-31T15:10:28;2.70;;;2.13;;
813;SDS011;389;48.710;9.392;2023-08-31T15:12:54;3.17;;;2.20;;
813;SDS011;389;48.710;9.392;2023-08-31T15:15:26;2.60;;;1.87;;
813;SDS011;389;48.710;9.392;2023-08-31T15:17:53;4.60;;;2.40;;
813;SDS011;389;48.710;9.392;2023-08-31T15:20:18;2.60;;;1.90;;
813;SDS011;389;48.710;9.392;2023-08-31T15:22:44;3.43;;;2.80;;
813;SDS011;389;48.710;9.392;2023-08-31T15:25:09;3.03;;;1.90;;
813;SDS011;389;48.710;9.392;2023-08-31T15:27:35;2.97;;;2.00;;
813;SDS011;389;48.710;9.392;2023-08-31T15:30:01;4.93;;;1.97;;
813;SDS011;389;48.710;9.392;2023-08-31T15:32:29;3.33;;;2.00;;
813;SDS011;389;48.710;9.392;2023-08-31T15:34:55;2.43;;;2.13;;
813;SDS011;389;48.710;9.392;2023-08-31T15:37:20;6.60;;;2.70;;
813;SDS011;389;48.710;9.392;2023-08-31T15:39:46;2.90;;;2.30;;
813;SDS011;389;48.710;9.392;2023-08-31T15:42:11;5.40;;;2.50;;
813;SDS011;389;48.710;9.392;2023-08-31T15:44:41;4.60;;;2.27;;
813;SDS011;389;48.710;9.392;2023-08-31T15:47:07;4.13;;;1.90;;
813;SDS011;389;48.710;9.392;2023-08-31T15:49:33;4.03;;;2.67;;
813;SDS011;389;48.710;9.392;2023-08-31T15:51:58;3.53;;;2.23;;
813;SDS011;389;48.710;9.392;2023-08-31T15:54:25;2.90;;;2.20;;
813;SDS011;389;48.710;9.392;2023-08-31T15:56:51;2.10;;;1.90;;